sensor_id;sensor_type;location;lat;lon;timestamp;pressure;altitude;pressure_sealevel;temperature;humidity
27729;BME280;15126;42.186;24.340;2023-03-25T00:02:13;99083.78;;;10.04;76.42
27729;BME280;15126;42.186;24.340;2023-03-25T00:04:41;99082.72;;;10.18;76.46
27729;BME280;15126;42.186;24.340;2023-03-25T00:07:09;99073.06;;;10.03;76.40
27729;BME280;15126;42.186;24.340;2023-03-25T00:09:36;99063.50;;;10.04;75.67
27729;BME280;15126;42.186;24.340;2023-03-25T00:12:03;99086.91;;;10.06;76.50
27729;BME280;15126;42.186;24.340;2023-03-25T00:14:30;99082.47;;;9.93;76.99
27729;BME280;15126;42.186;24.340;2023-03-25T00:16:58;99080.19;;;9.88;76.90
27729;BME280;15126;42.186;24.340;2023-03-25T00:19:26;99079.41;;;9.87;77.32
27729;BME280;15126;42.186;24.340;2023-03-25T00:21:52;99070.34;;;9.83;76.99
27729;BME280;15126;42.186;24.340;2023-03-25T00:24:20;99073.03;;;9.87;77.15
27729;BME280;15126;42.186;24.340;2023-03-25T00:26:47;99073.47;;;9.85;76.68
27729;BME280;15126;42.186;24.340;2023-03-25T00:29:15;99068.16;;;9.75;76.31
27729;BME280;15126;42.186;24.340;2023-03-25T00:31:42;99075.91;;;9.83;75.68
27729;BME280;15126;42.186;24.340;2023-03-25T00:34:09;99081.00;;;9.69;76.45
27729;BME280;15126;42.186;24.340;2023-03-25T00:36:39;99077.25;;;9.59;76.73
27729;BME280;15126;42.186;24.340;2023-03-25T00:39:08;99064.38;;;9.65;76.55
27729;BME280;15126;42.186;24.340;2023-03-25T00:41:36;99068.50;;;9.77;75.95
27729;BME280;15126;42.186;24.340;2023-03-25T00:44:06;99046.91;;;9.65;75.43
27729;BME280;15126;42.186;24.340;2023-03-25T00:46:33;99066.78;;;9.83;75.18
27729;BME280;15126;42.186;24.340;2023-03-25T00:49:00;99068.25;;;9.87;74.61
27729;BME280;15126;42.186;24.340;2023-03-25T00:51:27;99067.84;;;9.89;75.15
27729;BME280;15126;42.186;24.340;2023-03-25T00:53:56;99065.41;;;9.91;74.31
27729;BME280;15126;42.186;24.340;2023-03-25T00:56:25;99050.59;;;9.94;74.44
27729;BME280;15126;42.186;24.340;2023-03-25T00:58:53;99047.47;;;9.92;74.18
27729;BME280;15126;42.186;24.340;2023-03-25T01:01:22;99029.78;;;9.82;74.71
27729;BME280;15126;42.186;24.340;2023-03-25T01:03:51;99039.81;;;9.96;73.88
27729;BME280;15126;42.186;24.340;2023-03-25T01:06:24;99040.75;;;9.89;74.34
27729;BME280;15126;42.186;24.340;2023-03-25T01:08:53;99029.25;;;9.87;74.67
27729;BME280;15126;42.186;24.340;2023-03-25T01:11:23;99041.13;;;9.91;73.86
27729;BME280;15126;42.186;24.340;2023-03-25T01:13:52;99039.53;;;9.90;74.00
27729;BME280;15126;42.186;24.340;2023-03-25T01:16:19;99040.41;;;9.87;74.65
27729;BME280;15126;42.186;24.340;2023-03-25T01:18:46;99041.84;;;9.76;76.18
27729;BME280;15126;42.186;24.340;2023-03-25T01:21:13;99043.09;;;9.75;76.38
27729;BME280;15126;42.186;24.340;2023-03-25T01:23:40;99028.81;;;9.73;75.71
27729;BME280;15126;42.186;24.340;2023-03-25T01:26:07;99017.41;;;9.67;75.12
27729;BME280;15126;42.186;24.340;2023-03-25T01:28:34;99027.31;;;9.68;75.11
27729;BME280;15126;42.186;24.340;2023-03-25T01:31:04;99021.47;;;9.63;75.47
27729;BME280;15126;42.186;24.340;2023-03-25T01:33:32;98998.09;;;9.40;75.27
27729;BME280;15126;42.186;24.340;2023-03-25T01:35:59;99016.94;;;9.52;76.25
27729;BME280;15126;42.186;24.340;2023-03-25T01:38:27;99012.22;;;9.49;75.87
27729;BME280;15126;42.186;24.340;2023-03-25T01:40:55;99006.94;;;9.35;75.70
27729;BME280;15126;42.186;24.340;2023-03-25T01:43:23;98990.41;;;9.28;77.31
27729;BME280;15126;42.186;24.340;2023-03-25T01:45:50;99007.47;;;9.30;76.97
27729;BME280;15126;42.186;24.340;2023-03-25T01:48:21;99000.25;;;9.33;76.73
27729;BME280;15126;42.186;24.340;2023-03-25T01:50:52;98998.25;;;9.33;76.26
27729;BME280;15126;42.186;24.340;2023-03-25T01:53:19;98993.53;;;9.30;76.62
27729;BME280;15126;42.186;24.340;2023-03-25T01:55:47;98996.41;;;9.27;77.11
27729;BME280;15126;42.186;24.340;2023-03-25T01:58:18;99002.13;;;9.20;77.32
27729;BME280;15126;42.186;24.340;2023-03-25T02:00:48;98989.84;;;9.17;77.67
27729;BME280;15126;42.186;24.340;2023-03-25T02:03:19;98992.63;;;9.17;77.73
27729;BME280;15126;42.186;24.340;2023-03-25T02:05:51;98986.56;;;9.22;76.87
27729;BME280;15126;42.186;24.340;2023-03-25T02:08:22;98982.72;;;9.16;77.54
27729;BME280;15126;42.186;24.340;2023-03-25T02:10:49;98977.53;;;9.18;77.35
27729;BME280;15126;42.186;24.340;2023-03-25T02:13:19;98977.53;;;9.18;76.50
27729;BME280;15126;42.186;24.340;2023-03-25T02:15:59;98975.16;;;9.17;77.28
27729;BME280;15126;42.186;24.340;2023-03-25T02:18:39;98972.09;;;9.11;77.91
27729;BME280;15126;42.186;24.340;2023-03-25T02:24:12;98959.91;;;9.05;77.82
27729;BME280;15126;42.186;24.340;2023-03-25T02:27:01;98951.50;;;8.89;78.65
27729;BME280;15126;42.186;24.340;2023-03-25T02:32:44;98961.41;;;8.90;77.10
27729;BME280;15126;42.186;24.340;2023-03-25T02:35:32;98961.06;;;8.88;78.45
27729;BME280;15126;42.186;24.340;2023-03-25T02:38:18;98950.50;;;8.79;78.25
27729;BME280;15126;42.186;24.340;2023-03-25T02:40:53;98958.28;;;8.88;77.67
27729;BME280;15126;42.186;24.340;2023-03-25T02:43:27;98959.75;;;8.92;77.80
27729;BME280;15126;42.186;24.340;2023-03-25T02:45:58;98951.44;;;8.92;78.14
27729;BME280;15126;42.186;24.340;2023-03-25T02:48:30;98935.31;;;8.84;77.71
27729;BME280;15126;42.186;24.340;2023-03-25T02:51:01;98945.88;;;8.92;77.65
27729;BME280;15126;42.186;24.340;2023-03-25T02:53:33;98933.38;;;8.81;78.10
27729;BME280;15126;42.186;24.340;2023-03-25T02:56:05;98943.09;;;8.92;77.33
27729;BME280;15126;42.186;24.340;2023-03-25T02:58:34;98911.34;;;8.70;77.60
27729;BME280;15126;42.186;24.340;2023-03-25T03:01:04;98922.97;;;8.85;77.89
27729;BME280;15126;42.186;24.340;2023-03-25T03:03:31;98931.63;;;8.90;77.49
27729;BME280;15126;42.186;24.340;2023-03-25T03:05:59;98923.06;;;8.81;77.73
27729;BME280;15126;42.186;24.340;2023-03-25T03:08:42;98930.81;;;8.90;77.27
27729;BME280;15126;42.186;24.340;2023-03-25T03:11:13;98930.81;;;8.90;77.48
27729;BME280;15126;42.186;24.340;2023-03-25T03:13:52;98920.56;;;8.87;77.61
27729;BME280;15126;42.186;24.340;2023-03-25T03:16:29;98918.63;;;8.84;77.80
27729;BME280;15126;42.186;24.340;2023-03-25T03:19:05;98920.63;;;8.83;77.85
27729;BME280;15126;42.186;24.340;2023-03-25T03:21:39;98931.75;;;8.83;77.46
27729;BME280;15126;42.186;24.340;2023-03-25T03:24:14;98933.38;;;8.81;77.70
27729;BME280;15126;42.186;24.340;2023-03-25T03:26:45;98937.81;;;8.78;77.43
27729;BME280;15126;42.186;24.340;2023-03-25T03:29:16;98905.59;;;8.61;77.64
27729;BME280;15126;42.186;24.340;2023-03-25T03:31:47;98924.84;;;8.72;77.51
27729;BME280;15126;42.186;24.340;2023-03-25T03:34:21;98924.47;;;8.70;78.11
27729;BME280;15126;42.186;24.340;2023-03-25T03:36:54;98925.69;;;8.69;77.91
27729;BME280;15126;42.186;24.340;2023-03-25T03:39:27;98921.84;;;8.63;78.14
27729;BME280;15126;42.186;24.340;2023-03-25T03:42:00;98913.94;;;8.61;78.23
27729;BME280;15126;42.186;24.340;2023-03-25T03:44:30;98913.94;;;8.61;78.64
27729;BME280;15126;42.186;24.340;2023-03-25T03:47:02;98913.56;;;8.59;78.14
27729;BME280;15126;42.186;24.340;2023-03-25T03:49:34;98924.78;;;8.56;78.41
27729;BME280;15126;42.186;24.340;2023-03-25T03:52:05;98911.34;;;8.51;78.77
27729;BME280;15126;42.186;24.340;2023-03-25T03:54:38;98921.25;;;8.52;78.76
27729;BME280;15126;42.186;24.340;2023-03-25T03:57:11;98920.47;;;8.51;78.92
27729;BME280;15126;42.186;24.340;2023-03-25T03:59:44;98924.47;;;8.50;78.67
27729;BME280;15126;42.186;24.340;2023-03-25T04:02:19;98914.34;;;8.40;79.16
27729;BME280;15126;42.186;24.340;2023-03-25T04:04:48;98912.84;;;8.35;78.92
27729;BME280;15126;42.186;24.340;2023-03-25T04:07:17;98915.31;;;8.30;79.26
27729;BME280;15126;42.186;24.340;2023-03-25T04:09:52;98916.97;;;8.27;79.82
27729;BME280;15126;42.186;24.340;2023-03-25T04:12:23;98941.06;;;8.34;79.83
27729;BME280;15126;42.186;24.340;2023-03-25T04:14:52;98922.47;;;8.31;79.56
27729;BME280;15126;42.186;24.340;2023-03-25T04:17:19;98921.66;;;8.30;79.08
27729;BME280;15126;42.186;24.340;2023-03-25T04:19:46;98922.97;;;8.22;80.05
27729;BME280;15126;42.186;24.340;2023-03-25T04:22:14;98892.81;;;8.01;80.26
27729;BME280;15126;42.186;24.340;2023-03-25T04:24:42;98932.16;;;8.19;80.59
27729;BME280;15126;42.186;24.340;2023-03-25T04:27:10;98926.34;;;8.10;80.81
27729;BME280;15126;42.186;24.340;2023-03-25T04:29:38;98936.28;;;8.11;81.04
27729;BME280;15126;42.186;24.340;2023-03-25T04:32:06;98935.84;;;8.13;80.44
27729;BME280;15126;42.186;24.340;2023-03-25T04:34:34;98930.84;;;8.04;81.18
27729;BME280;15126;42.186;24.340;2023-03-25T04:37:00;98927.09;;;7.91;81.94
27729;BME280;15126;42.186;24.340;2023-03-25T04:39:27;98938.97;;;7.92;81.36
27729;BME280;15126;42.186;24.340;2023-03-25T04:41:57;98934.22;;;7.92;80.66
27729;BME280;15126;42.186;24.340;2023-03-25T04:44:28;98938.13;;;7.95;80.60
27729;BME280;15126;42.186;24.340;2023-03-25T04:46:57;98934.09;;;7.99;80.75
27729;BME280;15126;42.186;24.340;2023-03-25T04:49:25;98930.97;;;7.97;80.93
27729;BME280;15126;42.186;24.340;2023-03-25T04:51:53;98926.25;;;7.94;80.99
27729;BME280;15126;42.186;24.340;2023-03-25T04:54:21;98939.53;;;8.06;80.54
27729;BME280;15126;42.186;24.340;2023-03-25T04:56:49;98947.03;;;8.09;80.57
27729;BME280;15126;42.186;24.340;2023-03-25T04:59:17;98936.97;;;8.15;80.44
27729;BME280;15126;42.186;24.340;2023-03-25T05:01:46;98933.78;;;8.17;80.30
27729;BME280;15126;42.186;24.340;2023-03-25T05:04:15;98933.00;;;8.16;80.23
27729;BME280;15126;42.186;24.340;2023-03-25T05:06:44;98943.06;;;8.33;80.45
27729;BME280;15126;42.186;24.340;2023-03-25T05:09:13;98937.66;;;8.46;79.93
27729;BME280;15126;42.186;24.340;2023-03-25T05:11:40;98936.59;;;8.60;79.41
27729;BME280;15126;42.186;24.340;2023-03-25T05:14:08;98947.38;;;8.77;79.16
27729;BME280;15126;42.186;24.340;2023-03-25T05:16:35;98925.84;;;8.81;79.17
27729;BME280;15126;42.186;24.340;2023-03-25T05:19:04;98951.47;;;9.09;78.58
27729;BME280;15126;42.186;24.340;2023-03-25T05:21:31;98942.78;;;9.26;77.71
27729;BME280;15126;42.186;24.340;2023-03-25T05:24:00;98938.97;;;9.36;76.56
27729;BME280;15126;42.186;24.340;2023-03-25T05:26:28;98932.63;;;9.52;75.69
27729;BME280;15126;42.186;24.340;2023-03-25T05:28:59;98935.44;;;9.68;75.05
27729;BME280;15126;42.186;24.340;2023-03-25T05:31:26;98929.97;;;9.81;74.69
27729;BME280;15126;42.186;24.340;2023-03-25T05:33:53;98921.78;;;9.90;73.87
27729;BME280;15126;42.186;24.340;2023-03-25T05:36:21;98935.88;;;9.99;73.49
27729;BME280;15126;42.186;24.340;2023-03-25T05:38:49;98929.97;;;9.97;73.78
27729;BME280;15126;42.186;24.340;2023-03-25T05:41:19;98919.75;;;10.06;73.11
27729;BME280;15126;42.186;24.340;2023-03-25T05:43:47;98922.13;;;10.24;73.38
27729;BME280;15126;42.186;24.340;2023-03-25T05:46:16;98934.13;;;10.37;72.97
27729;BME280;15126;42.186;24.340;2023-03-25T05:48:44;98933.50;;;10.46;71.81
27729;BME280;15126;42.186;24.340;2023-03-25T05:51:13;98903.91;;;10.36;71.94
27729;BME280;15126;42.186;24.340;2023-03-25T05:53:43;98928.22;;;10.64;71.14
27729;BME280;15126;42.186;24.340;2023-03-25T05:56:10;98931.03;;;10.76;71.05
27729;BME280;15126;42.186;24.340;2023-03-25T05:58:37;98905.69;;;10.71;70.44
27729;BME280;15126;42.186;24.340;2023-03-25T06:01:04;98928.19;;;10.93;70.13
27729;BME280;15126;42.186;24.340;2023-03-25T06:03:31;98937.06;;;11.16;69.10
27729;BME280;15126;42.186;24.340;2023-03-25T06:06:00;98929.69;;;11.22;69.02
27729;BME280;15126;42.186;24.340;2023-03-25T06:08:29;98927.59;;;11.39;68.04
27729;BME280;15126;42.186;24.340;2023-03-25T06:10:58;98928.31;;;11.68;69.25
27729;BME280;15126;42.186;24.340;2023-03-25T06:13:26;98929.53;;;11.80;67.52
27729;BME280;15126;42.186;24.340;2023-03-25T06:15:53;98897.13;;;11.82;67.48
27729;BME280;15126;42.186;24.340;2023-03-25T06:18:24;98906.94;;;12.00;66.47
27729;BME280;15126;42.186;24.340;2023-03-25T06:20:52;98923.72;;;12.34;65.16
27729;BME280;15126;42.186;24.340;2023-03-25T06:23:22;98930.81;;;12.60;66.26
27729;BME280;15126;42.186;24.340;2023-03-25T06:25:49;98929.25;;;12.81;66.54
27729;BME280;15126;42.186;24.340;2023-03-25T06:28:17;98934.72;;;12.84;66.18
27729;BME280;15126;42.186;24.340;2023-03-25T06:30:44;98930.34;;;13.05;64.36
27729;BME280;15126;42.186;24.340;2023-03-25T06:33:12;98932.72;;;13.28;64.35
27729;BME280;15126;42.186;24.340;2023-03-25T06:35:40;98924.53;;;13.43;63.53
27729;BME280;15126;42.186;24.340;2023-03-25T06:38:07;98916.66;;;13.59;62.17
27729;BME280;15126;42.186;24.340;2023-03-25T06:40:35;98922.81;;;13.76;62.71
27729;BME280;15126;42.186;24.340;2023-03-25T06:43:02;98916.94;;;13.92;63.75
27729;BME280;15126;42.186;24.340;2023-03-25T06:45:31;98904.22;;;14.09;62.63
27729;BME280;15126;42.186;24.340;2023-03-25T06:47:58;98908.03;;;14.34;62.28
27729;BME280;15126;42.186;24.340;2023-03-25T06:50:25;98908.97;;;14.49;61.75
27729;BME280;15126;42.186;24.340;2023-03-25T06:52:52;98901.78;;;14.66;61.29
27729;BME280;15126;42.186;24.340;2023-03-25T06:55:19;98906.44;;;14.87;59.83
27729;BME280;15126;42.186;24.340;2023-03-25T06:57:45;98916.59;;;15.03;61.36
27729;BME280;15126;42.186;24.340;2023-03-25T07:00:12;98908.28;;;15.17;58.47
27729;BME280;15126;42.186;24.340;2023-03-25T07:02:46;98914.53;;;15.21;58.77
27729;BME280;15126;42.186;24.340;2023-03-25T07:05:12;98916.19;;;15.37;58.52
27729;BME280;15126;42.186;24.340;2023-03-25T07:07:39;98910.72;;;15.52;58.74
27729;BME280;15126;42.186;24.340;2023-03-25T07:10:07;98900.06;;;15.56;55.68
27729;BME280;15126;42.186;24.340;2023-03-25T07:12:34;98910.00;;;15.66;56.24
27729;BME280;15126;42.186;24.340;2023-03-25T07:15:01;98903.41;;;15.78;57.60
27729;BME280;15126;42.186;24.340;2023-03-25T07:17:28;98900.56;;;15.87;57.91
27729;BME280;15126;42.186;24.340;2023-03-25T07:19:56;98906.91;;;15.96;55.73
27729;BME280;15126;42.186;24.340;2023-03-25T07:22:23;98897.09;;;16.16;58.46
27729;BME280;15126;42.186;24.340;2023-03-25T07:24:49;98877.34;;;16.25;55.67
27729;BME280;15126;42.186;24.340;2023-03-25T07:27:16;98907.66;;;16.53;54.29
27729;BME280;15126;42.186;24.340;2023-03-25T07:29:43;98877.91;;;16.52;56.06
27729;BME280;15126;42.186;24.340;2023-03-25T07:32:10;98892.91;;;16.58;51.66
27729;BME280;15126;42.186;24.340;2023-03-25T07:34:37;98880.81;;;16.82;51.95
27729;BME280;15126;42.186;24.340;2023-03-25T07:37:05;98882.38;;;16.83;53.22
27729;BME280;15126;42.186;24.340;2023-03-25T07:39:33;98878.09;;;16.73;55.32
27729;BME280;15126;42.186;24.340;2023-03-25T07:42:00;98882.19;;;16.86;53.41
27729;BME280;15126;42.186;24.340;2023-03-25T07:44:27;98884.72;;;16.99;53.94
27729;BME280;15126;42.186;24.340;2023-03-25T07:46:54;98882.00;;;17.04;53.89
27729;BME280;15126;42.186;24.340;2023-03-25T07:49:21;98879.75;;;16.94;53.03
27729;BME280;15126;42.186;24.340;2023-03-25T07:51:48;98874.53;;;17.16;54.67
27729;BME280;15126;42.186;24.340;2023-03-25T07:54:16;98857.72;;;17.21;54.63
27729;BME280;15126;42.186;24.340;2023-03-25T07:56:45;98861.78;;;17.35;51.47
27729;BME280;15126;42.186;24.340;2023-03-25T07:59:11;98853.59;;;17.37;51.60
27729;BME280;15126;42.186;24.340;2023-03-25T08:01:38;98860.31;;;17.40;50.35
27729;BME280;15126;42.186;24.340;2023-03-25T08:04:05;98865.19;;;17.54;50.65
27729;BME280;15126;42.186;24.340;2023-03-25T08:06:32;98855.91;;;17.68;48.36
27729;BME280;15126;42.186;24.340;2023-03-25T08:08:58;98860.22;;;17.63;49.72
27729;BME280;15126;42.186;24.340;2023-03-25T08:11:27;98849.19;;;17.80;50.63
27729;BME280;15126;42.186;24.340;2023-03-25T08:13:53;98855.25;;;17.93;48.27
27729;BME280;15126;42.186;24.340;2023-03-25T08:16:20;98844.06;;;17.99;47.86
27729;BME280;15126;42.186;24.340;2023-03-25T08:18:47;98835.75;;;18.10;49.53
27729;BME280;15126;42.186;24.340;2023-03-25T08:21:17;98839.38;;;18.16;47.97
27729;BME280;15126;42.186;24.340;2023-03-25T08:23:49;98824.69;;;18.32;49.44
27729;BME280;15126;42.186;24.340;2023-03-25T08:26:16;98826.00;;;18.31;51.19
27729;BME280;15126;42.186;24.340;2023-03-25T08:28:45;98824.44;;;18.50;50.90
27729;BME280;15126;42.186;24.340;2023-03-25T08:31:12;98831.34;;;18.69;51.80
27729;BME280;15126;42.186;24.340;2023-03-25T08:33:39;98830.78;;;18.91;49.23
27729;BME280;15126;42.186;24.340;2023-03-25T08:36:08;98816.19;;;18.98;49.01
27729;BME280;15126;42.186;24.340;2023-03-25T08:38:38;98816.81;;;19.08;47.81
27729;BME280;15126;42.186;24.340;2023-03-25T08:41:06;98819.44;;;19.17;49.84
27729;BME280;15126;42.186;24.340;2023-03-25T08:43:33;98807.25;;;19.36;48.06
27729;BME280;15126;42.186;24.340;2023-03-25T08:46:01;98800.03;;;19.35;47.10
27729;BME280;15126;42.186;24.340;2023-03-25T08:48:28;98796.03;;;19.42;48.58
27729;BME280;15126;42.186;24.340;2023-03-25T08:50:55;98793.75;;;19.51;50.24
27729;BME280;15126;42.186;24.340;2023-03-25T08:53:22;98787.16;;;19.66;48.06
27729;BME280;15126;42.186;24.340;2023-03-25T08:55:50;98783.88;;;19.73;48.59
27729;BME280;15126;42.186;24.340;2023-03-25T08:58:17;98793.44;;;19.81;47.15
27729;BME280;15126;42.186;24.340;2023-03-25T09:00:45;98792.94;;;19.88;45.84
27729;BME280;15126;42.186;24.340;2023-03-25T09:03:13;98777.81;;;19.96;46.09
27729;BME280;15126;42.186;24.340;2023-03-25T09:05:40;98768.63;;;20.12;48.63
27729;BME280;15126;42.186;24.340;2023-03-25T09:08:07;98763.47;;;20.22;45.83
27729;BME280;15126;42.186;24.340;2023-03-25T09:10:34;98762.22;;;20.23;48.05
27729;BME280;15126;42.186;24.340;2023-03-25T09:13:01;98751.44;;;20.27;43.73
27729;BME280;15126;42.186;24.340;2023-03-25T09:15:27;98757.16;;;20.49;44.03
27729;BME280;15126;42.186;24.340;2023-03-25T09:17:55;98755.66;;;20.76;47.09
27729;BME280;15126;42.186;24.340;2023-03-25T09:20:23;98748.47;;;20.92;44.64
27729;BME280;15126;42.186;24.340;2023-03-25T09:22:51;98750.53;;;21.02;44.22
27729;BME280;15126;42.186;24.340;2023-03-25T09:25:17;98734.81;;;21.18;42.93
27729;BME280;15126;42.186;24.340;2023-03-25T09:27:44;98724.50;;;21.09;43.94
27729;BME280;15126;42.186;24.340;2023-03-25T09:30:12;98726.03;;;21.32;45.50
27729;BME280;15126;42.186;24.340;2023-03-25T09:32:39;98712.84;;;21.52;43.05
27729;BME280;15126;42.186;24.340;2023-03-25T09:35:07;98718.94;;;21.78;44.28
27729;BME280;15126;42.186;24.340;2023-03-25T09:37:35;98708.06;;;21.93;44.33
27729;BME280;15126;42.186;24.340;2023-03-25T09:40:05;98711.63;;;21.99;42.25
27729;BME280;15126;42.186;24.340;2023-03-25T09:42:56;98693.03;;;22.04;41.61
27729;BME280;15126;42.186;24.340;2023-03-25T09:45:31;98696.91;;;22.06;43.99
27729;BME280;15126;42.186;24.340;2023-03-25T09:48:02;98697.97;;;21.98;41.98
27729;BME280;15126;42.186;24.340;2023-03-25T09:50:31;98697.88;;;22.14;41.27
27729;BME280;15126;42.186;24.340;2023-03-25T09:53:04;98696.91;;;22.06;40.14
27729;BME280;15126;42.186;24.340;2023-03-25T09:55:40;98688.78;;;22.21;43.82
27729;BME280;15126;42.186;24.340;2023-03-25T09:58:24;98684.34;;;22.31;42.30
27729;BME280;15126;42.186;24.340;2023-03-25T10:00:56;98661.59;;;22.31;41.90
27729;BME280;15126;42.186;24.340;2023-03-25T10:03:28;98676.00;;;22.44;39.72
27729;BME280;15126;42.186;24.340;2023-03-25T10:06:19;98672.25;;;22.61;40.77
27729;BME280;15126;42.186;24.340;2023-03-25T10:09:15;98671.25;;;22.64;41.25
27729;BME280;15126;42.186;24.340;2023-03-25T10:11:49;98671.25;;;22.64;40.28
27729;BME280;15126;42.186;24.340;2023-03-25T10:14:25;98662.84;;;22.77;42.79
27729;BME280;15126;42.186;24.340;2023-03-25T10:17:02;98654.75;;;22.86;40.32
27729;BME280;15126;42.186;24.340;2023-03-25T10:19:43;98645.53;;;22.75;40.82
27729;BME280;15126;42.186;24.340;2023-03-25T10:22:17;98655.16;;;22.72;41.23
27729;BME280;15126;42.186;24.340;2023-03-25T10:24:48;98645.09;;;22.65;41.34
27729;BME280;15126;42.186;24.340;2023-03-25T10:27:21;98635.25;;;22.72;40.43
27729;BME280;15126;42.186;24.340;2023-03-25T10:29:53;98609.72;;;22.66;39.82
27729;BME280;15126;42.186;24.340;2023-03-25T10:32:31;98616.91;;;22.67;40.74
27729;BME280;15126;42.186;24.340;2023-03-25T10:35:02;98619.88;;;22.80;40.12
27729;BME280;15126;42.186;24.340;2023-03-25T10:37:33;98617.38;;;22.77;40.21
27729;BME280;15126;42.186;24.340;2023-03-25T10:40:12;98597.56;;;22.90;39.08
27729;BME280;15126;42.186;24.340;2023-03-25T10:42:44;98606.72;;;23.07;39.96
27729;BME280;15126;42.186;24.340;2023-03-25T10:45:16;98607.78;;;23.04;38.72
27729;BME280;15126;42.186;24.340;2023-03-25T10:47:45;98587.25;;;23.11;39.10
27729;BME280;15126;42.186;24.340;2023-03-25T10:50:14;98591.88;;;23.14;41.75
27729;BME280;15126;42.186;24.340;2023-03-25T10:52:41;98584.06;;;23.20;39.08
27729;BME280;15126;42.186;24.340;2023-03-25T10:55:21;98587.38;;;23.24;40.20
27729;BME280;15126;42.186;24.340;2023-03-25T10:57:50;98584.44;;;23.30;38.45
27729;BME280;15126;42.186;24.340;2023-03-25T11:00:18;98571.97;;;23.38;40.63
27729;BME280;15126;42.186;24.340;2023-03-25T11:02:46;98574.31;;;23.34;38.29
27729;BME280;15126;42.186;24.340;2023-03-25T11:05:16;98573.25;;;23.37;38.50
27729;BME280;15126;42.186;24.340;2023-03-25T11:07:45;98573.97;;;23.43;38.39
27729;BME280;15126;42.186;24.340;2023-03-25T11:10:17;98568.53;;;23.45;37.10
27729;BME280;15126;42.186;24.340;2023-03-25T11:12:45;98551.13;;;23.49;37.49
27729;BME280;15126;42.186;24.340;2023-03-25T11:15:14;98564.91;;;23.63;37.07
27729;BME280;15126;42.186;24.340;2023-03-25T11:17:42;98548.34;;;23.62;37.97
27729;BME280;15126;42.186;24.340;2023-03-25T11:20:17;98548.53;;;23.69;38.54
27729;BME280;15126;42.186;24.340;2023-03-25T11:22:48;98543.28;;;23.74;37.91
27729;BME280;15126;42.186;24.340;2023-03-25T11:25:19;98533.72;;;23.71;38.20
27729;BME280;15126;42.186;24.340;2023-03-25T11:27:52;98541.56;;;23.84;37.16
27729;BME280;15126;42.186;24.340;2023-03-25T11:30:22;98524.47;;;23.84;37.26
27729;BME280;15126;42.186;24.340;2023-03-25T11:32:56;98522.78;;;23.94;35.98
27729;BME280;15126;42.186;24.340;2023-03-25T11:35:25;98519.50;;;24.03;37.00
27729;BME280;15126;42.186;24.340;2023-03-25T11:37:55;98504.63;;;23.97;36.67
27729;BME280;15126;42.186;24.340;2023-03-25T11:40:24;98498.81;;;24.02;37.12
27729;BME280;15126;42.186;24.340;2023-03-25T11:42:53;98484.97;;;24.12;35.98
27729;BME280;15126;42.186;24.340;2023-03-25T11:45:23;98488.69;;;24.20;35.47
27729;BME280;15126;42.186;24.340;2023-03-25T11:47:53;98491.03;;;24.21;36.37
27729;BME280;15126;42.186;24.340;2023-03-25T11:50:25;98496.38;;;24.25;36.54
27729;BME280;15126;42.186;24.340;2023-03-25T11:52:54;98451.38;;;24.05;34.86
27729;BME280;15126;42.186;24.340;2023-03-25T11:55:26;98473.47;;;24.17;36.48
27729;BME280;15126;42.186;24.340;2023-03-25T11:57:54;98470.41;;;24.28;34.52
27729;BME280;15126;42.186;24.340;2023-03-25T12:00:30;98473.47;;;24.31;36.52
27729;BME280;15126;42.186;24.340;2023-03-25T12:02:59;98457.06;;;24.37;36.74
27729;BME280;15126;42.186;24.340;2023-03-25T12:05:26;98463.19;;;24.41;35.68
27729;BME280;15126;42.186;24.340;2023-03-25T12:08:02;98442.69;;;24.29;34.07
27729;BME280;15126;42.186;24.340;2023-03-25T12:10:41;98440.50;;;24.48;34.72
27729;BME280;15126;42.186;24.340;2023-03-25T12:13:15;98440.41;;;24.54;36.40
27729;BME280;15126;42.186;24.340;2023-03-25T12:15:52;98439.72;;;24.74;36.53
27729;BME280;15126;42.186;24.340;2023-03-25T12:21:25;98424.50;;;24.71;34.00
27729;BME280;15126;42.186;24.340;2023-03-25T12:24:04;98425.16;;;24.64;33.13
27729;BME280;15126;42.186;24.340;2023-03-25T12:26:42;98419.66;;;24.66;33.33
27729;BME280;15126;42.186;24.340;2023-03-25T12:29:32;98406.19;;;24.67;33.59
27729;BME280;15126;42.186;24.340;2023-03-25T12:32:16;98412.44;;;24.78;34.52
27729;BME280;15126;42.186;24.340;2023-03-25T12:34:53;98407.50;;;24.79;33.58
27729;BME280;15126;42.186;24.340;2023-03-25T12:37:29;98406.97;;;24.80;32.68
27729;BME280;15126;42.186;24.340;2023-03-25T12:40:16;98406.19;;;24.80;32.05
27729;BME280;15126;42.186;24.340;2023-03-25T12:42:57;98393.13;;;24.84;32.72
27729;BME280;15126;42.186;24.340;2023-03-25T12:45:43;98395.53;;;24.94;33.64
27729;BME280;15126;42.186;24.340;2023-03-25T12:48:22;98393.75;;;25.04;34.04
27729;BME280;15126;42.186;24.340;2023-03-25T12:50:59;98386.06;;;24.99;32.90
27729;BME280;15126;42.186;24.340;2023-03-25T12:53:40;98378.94;;;25.05;32.90
27729;BME280;15126;42.186;24.340;2023-03-25T12:56:25;98376.72;;;25.11;33.15
27729;BME280;15126;42.186;24.340;2023-03-25T12:59:15;98345.06;;;24.89;33.42
27729;BME280;15126;42.186;24.340;2023-03-25T13:01:52;98361.91;;;25.13;33.40
27729;BME280;15126;42.186;24.340;2023-03-25T13:04:37;98363.00;;;25.10;32.95
27729;BME280;15126;42.186;24.340;2023-03-25T13:07:11;98370.25;;;25.11;33.55
27729;BME280;15126;42.186;24.340;2023-03-25T13:09:51;98359.44;;;25.17;32.80
27729;BME280;15126;42.186;24.340;2023-03-25T13:12:28;98359.69;;;25.19;31.76
27729;BME280;15126;42.186;24.340;2023-03-25T13:15:03;98356.00;;;25.11;31.47
27729;BME280;15126;42.186;24.340;2023-03-25T13:17:36;98347.31;;;25.03;31.83
27729;BME280;15126;42.186;24.340;2023-03-25T13:20:05;98336.94;;;24.93;32.27
27729;BME280;15126;42.186;24.340;2023-03-25T13:22:38;98346.97;;;25.07;31.66